Flight Track Log - Related Links

Times and Time Zones

All times are in EDT time to prevent confusion due to time zone crossing. See the LXJ342 flight status page for this flight to view local times or setup timezone preferences in your user account.

Time Position Orientation Groundspeed Altitude Reporting Facility
EDT Latitude Longitude Course Direction KTS MPH feet Rate Location/Type
Fri 02:39:43 PM 42.1000 -87.8667 249° West 198 228 1,900  Level Chicago TRACON
Fri 02:40:49 PM 42.1500 -87.8167 37° Northeast 203 234 2,700 1,050 Climbing Chicago TRACON
Fri 02:41:43 PM 42.2000 -87.8500 334° Northwest 221 254 4,000 895 Climbing Chicago TRACON
Fri 02:42:43 PM 42.2167 -87.9333 285° West 230 265 4,400 923 Climbing Chicago TRACON
Fri 02:43:14 PM 42.2136 -87.9725 264° West 237 273 5,400 2,323 Climbing Chicago Center
Fri 02:44:16 PM 42.1844 -88.0647 247° West 266 306 8,000 2,710 Climbing Chicago Center
Fri 02:45:00 PM 41.8508 -88.8030 249° West  Level Estimated
Fri 02:45:18 PM 42.1497 -88.1600 244° Southwest 281 323 11,000  Level Chicago Center
Fri 02:46:20 PM 42.1119 -88.2647 244° Southwest 305 351 13,800 2,806 Climbing Chicago Center
Fri 02:47:22 PM 42.0675 -88.4044 247° West 336 387 16,800 2,516 Climbing Chicago Center
Fri 02:48:24 PM 42.0294 -88.5236 247° West 344 396 19,000 2,032 Climbing Chicago Center
Fri 02:49:26 PM 41.9892 -88.6456 246° West 357 411 21,000 1,839 Climbing Chicago Center
Fri 02:50:28 PM 41.9489 -88.7706 247° West 367 422 22,800 1,536 Climbing Chicago Center
Fri 02:51:31 PM 41.9072 -88.8981 246° West 373 429 24,200 1,536 Climbing Chicago Center
Fri 02:52:33 PM 41.8561 -89.0542 246° West 383 441 26,000 1,548 Climbing Chicago Center
Fri 02:53:35 PM 41.8131 -89.1847 246° West 387 445 27,400 1,161 Climbing Chicago Center
Fri 02:54:37 PM 41.7703 -89.3153 246° West 385 443 28,400 968 Climbing Chicago Center
Fri 02:55:39 PM 41.7250 -89.4483 246° West 393 452 29,400 968 Climbing Chicago Center
Fri 02:56:41 PM 41.6781 -89.5925 246° West 398 458 30,400 968 Climbing Chicago Center
Fri 02:57:43 PM 41.6322 -89.7281 246° West 401 461 31,400 774 Climbing Chicago Center
Fri 02:58:45 PM 41.5864 -89.8650 246° West 403 464 32,000 720 Climbing Chicago Center
Fri 02:59:48 PM 41.5306 -90.0319 246° West 410 472 32,900 919 Climbing Chicago Center
Fri 03:00:49 PM 41.4833 -90.1683 245° Southwest 409 471 33,900 878 Climbing Chicago Center
Fri 03:01:51 PM 41.4369 -90.3033 245° Southwest 405 466 34,700 629 Climbing Chicago Center
Fri 03:02:53 PM 41.3925 -90.4369 246° West 399 459 35,200 480 Climbing Chicago Center
Fri 03:03:56 PM 41.3461 -90.5708 245° Southwest 400 460 35,700 528 Climbing Chicago Center
Fri 03:04:58 PM 41.2656 -90.7322 236° Southwest 438 504 36,300 532 Climbing Chicago Center
Fri 03:06:00 PM 41.1917 -90.8583 232° Southwest 436 502 36,800 339 Climbing Chicago Center
Fri 03:07:02 PM 41.1144 -90.9878 232° Southwest 446 513 37,000 484 Climbing Chicago Center
Fri 03:08:04 PM 41.0350 -91.1217 232° Southwest 463 533 37,800 823 Climbing Chicago Center
Fri 03:09:06 PM 40.9572 -91.2503 231° Southwest 450 518 38,700 968 Climbing Chicago Center
Fri 03:10:08 PM 40.8694 -91.3975 232° Southwest 438 504 39,800 629 Climbing Chicago Center
Fri 03:11:10 PM 40.7947 -91.5206 231° Southwest 434 499 40,000 97 Climbing Chicago Center
Fri 03:12:12 PM 40.7181 -91.6469 231° Southwest 442 509 40,000  Level Chicago Center
Fri 03:13:14 PM 40.6397 -91.7758 231° Southwest 453 521 40,000  Level Chicago Center
Fri 03:14:04 PM 40.5758 -91.8786 231° Southwest 455 524 40,000  Level Kansas City Center
Fri 03:15:07 PM 40.4803 -92.0361 231° Southwest 461 531 40,000  Level Kansas City Center
Fri 03:16:09 PM 40.3978 -92.1667 230° Southwest 464 534 40,000  Level Kansas City Center
Fri 03:17:12 PM 40.3164 -92.2978 231° Southwest 464 534 40,000  Level Kansas City Center
Fri 03:18:13 PM 40.2239 -92.4411 230° Southwest 467 537 40,000  Level Kansas City Center
Fri 03:19:17 PM 40.1450 -92.5708 232° Southwest 473 544 40,000  Level Kansas City Center
Fri 03:20:18 PM 40.0803 -92.7325 242° Southwest 453 521 40,000  Level Kansas City Center
Fri 03:21:19 PM 40.0308 -92.8592 243° Southwest 451 519 40,000  Level Kansas City Center
Fri 03:22:23 PM 39.9628 -93.0336 243° Southwest 452 520 40,000  Level Kansas City Center
Fri 03:23:23 PM 39.9050 -93.1769 242° Southwest 452 520 40,000  Level Kansas City Center
Fri 03:24:27 PM 39.8506 -93.3244 244° Southwest 454 522 40,000  Level Kansas City Center
Fri 03:25:29 PM 39.7922 -93.4697 242° Southwest 455 524 40,000  Level Kansas City Center
Fri 03:26:29 PM 39.7353 -93.6158 243° Southwest 457 526 40,000  Level Kansas City Center
Fri 03:27:33 PM 39.6697 -93.7839 243° Southwest 454 522 40,000  Level Kansas City Center
Fri 03:28:34 PM 39.6136 -93.9222 242° Southwest 454 522 40,000  Level Kansas City Center
Fri 03:29:35 PM 39.5486 -94.0861 243° Southwest 456 525 40,000  Level Kansas City Center
Fri 03:30:39 PM 39.4928 -94.2258 243° Southwest 457 526 40,000  Level Kansas City Center
Fri 03:31:40 PM 39.4272 -94.3883 242° Southwest 456 525 40,000  Level Kansas City Center
Fri 03:32:44 PM 39.3708 -94.5269 242° Southwest 456 525 40,000  Level Kansas City Center
Fri 03:33:44 PM 39.3064 -94.6897 243° Southwest 454 522 40,000  Level Kansas City Center
Fri 03:34:47 PM 39.2578 -94.8317 246° West 453 521 40,000  Level Kansas City Center
Fri 03:35:48 PM 39.1997 -95.0011 246° West 452 520 40,000  Level Kansas City Center
Fri 03:36:52 PM 39.1472 -95.1533 246° West 461 531 40,000  Level Kansas City Center
Fri 03:37:52 PM 39.0906 -95.3125 245° Southwest 457 526 40,000  Level Kansas City Center
Fri 03:38:56 PM 39.0403 -95.4619 247° West 453 521 40,000  Level Kansas City Center
Fri 03:39:57 PM 38.9903 -95.6042 246° West 453 521 40,000  Level Kansas City Center
Fri 03:40:58 PM 38.9314 -95.7692 245° Southwest 455 524 40,000  Level Kansas City Center
Fri 03:42:01 PM 38.8811 -95.9125 246° West 458 527 40,000  Level Kansas City Center
Fri 03:43:03 PM 38.8308 -96.0539 246° West 456 525 40,000  Level Kansas City Center
Fri 03:44:04 PM 38.7719 -96.2194 246° West 457 526 40,000  Level Kansas City Center
Fri 03:45:08 PM 38.7200 -96.3606 245° Southwest 457 526 40,000  Level Kansas City Center
Fri 03:46:08 PM 38.6608 -96.5264 245° Southwest 459 528 40,000  Level Kansas City Center
Fri 03:47:12 PM 38.6092 -96.6689 245° Southwest 460 529 40,000  Level Kansas City Center
Fri 03:48:12 PM 38.5508 -96.8275 245° Southwest 466 536 40,000  Level Kansas City Center
Fri 03:49:16 PM 38.4961 -96.9775 245° Southwest 466 536 40,000  Level Kansas City Center
Fri 03:50:17 PM 38.4408 -97.1286 245° Southwest 470 541 40,000  Level Kansas City Center
Fri 03:51:18 PM 38.3850 -97.2778 245° Southwest 468 539 40,000  Level Kansas City Center
Fri 03:52:22 PM 38.3197 -97.4558 245° Southwest 466 536 40,000  Level Kansas City Center
Fri 03:53:23 PM 38.2642 -97.6042 245° Southwest 465 535 40,000  Level Kansas City Center
Fri 03:54:27 PM 38.2089 -97.7506 244° Southwest 463 533 40,000  Level Kansas City Center
Fri 03:55:27 PM 38.1525 -97.9042 245° Southwest 464 534 40,000  Level Kansas City Center
Fri 03:56:29 PM 38.0972 -98.0533 245° Southwest 466 536 40,000  Level Kansas City Center
Fri 03:57:32 PM 38.0328 -98.2164 243° Southwest 463 533 40,000  Level Kansas City Center
Fri 03:58:34 PM 37.9772 -98.3608 244° Southwest 460 529 40,000  Level Kansas City Center
Fri 03:59:37 PM 37.9211 -98.5050 244° Southwest 460 529 40,000  Level Kansas City Center
Fri 04:00:37 PM 37.8636 -98.6508 243° Southwest 461 531 40,000  Level Kansas City Center
Fri 04:01:39 PM 37.8083 -98.7975 245° Southwest 465 535 40,000  Level Kansas City Center
Fri 04:02:43 PM 37.7358 -98.9683 242° Southwest 462 532 40,000  Level Kansas City Center
Fri 04:03:44 PM 37.6811 -99.1122 244° Southwest 458 527 40,000  Level Kansas City Center
Fri 04:04:47 PM 37.6231 -99.2564 243° Southwest 459 528 40,000  Level Kansas City Center
Fri 04:05:48 PM 37.5658 -99.4000 243° Southwest 459 528 40,000  Level Kansas City Center
Fri 04:06:51 PM 37.5042 -99.5631 245° Southwest 449 517 40,000  Level Kansas City Center
Fri 04:07:51 PM 37.4478 -99.7006 243° Southwest 456 525 40,000  Level Kansas City Center
Fri 04:08:53 PM 37.3831 -99.8611 243° Southwest 459 528 40,000  Level Kansas City Center
Fri 04:09:57 PM 37.3272 -99.9994 243° Southwest 461 531 40,000  Level Kansas City Center
Fri 04:10:57 PM 37.2622 -100.1597 243° Southwest 461 531 40,000  Level Kansas City Center
Fri 04:12:01 PM 37.2044 -100.2983 242° Southwest 463 533 40,000  Level Kansas City Center
Fri 04:13:02 PM 37.1472 -100.4367 243° Southwest 465 535 40,000  Level Kansas City Center
Fri 04:14:06 PM 37.0806 -100.5992 243° Southwest 466 536 40,000  Level Kansas City Center
Fri 04:15:07 PM 37.0228 -100.7392 243° Southwest 469 540 40,000  Level Kansas City Center
Fri 04:16:08 PM 36.9544 -100.9014 242° Southwest 470 541 40,000  Level Kansas City Center
Fri 04:17:12 PM 36.8967 -101.0394 242° Southwest 468 539 40,000  Level Kansas City Center
Fri 04:18:13 PM 36.8289 -101.2008 242° Southwest 468 539 40,000  Level Kansas City Center
Fri 04:19:14 PM 36.7703 -101.3397 242° Southwest 470 541 40,000  Level Kansas City Center
Fri 04:20:17 PM 36.7017 -101.5006 242° Southwest 469 540 40,000  Level Kansas City Center
Fri 04:21:18 PM 36.6436 -101.6389 242° Southwest 470 541 40,000  Level Kansas City Center
Fri 04:21:57 PM 36.6053 -101.7308 243° Southwest 469 540 40,000  Level Albuquerque Center
Fri 04:22:59 PM 36.5400 -101.8833 242° Southwest 467 537 40,000  Level Albuquerque Center
Fri 04:24:00 PM 36.4792 -102.0228 242° Southwest 465 535 40,000  Level Albuquerque Center
Fri 04:25:02 PM 36.4186 -102.1619 242° Southwest 462 532 40,000  Level Albuquerque Center
Fri 04:26:04 PM 36.3583 -102.3022 242° Southwest 462 532 40,000  Level Albuquerque Center
Fri 04:27:06 PM 36.2978 -102.4386 241° Southwest 458 527 40,000  Level Albuquerque Center
Fri 04:28:08 PM 36.2256 -102.6033 242° Southwest 456 525 40,000  Level Albuquerque Center
Fri 04:29:10 PM 36.1664 -102.7389 242° Southwest 452 520 40,000  Level Albuquerque Center
Fri 04:30:12 PM 36.1044 -102.8750 241° Southwest 455 524 40,000  Level Albuquerque Center
Fri 04:31:14 PM 36.0394 -103.0250 242° Southwest 456 525 40,000  Level Albuquerque Center
Fri 04:32:16 PM 35.9756 -103.1642 240° Southwest 460 529 40,000  Level Albuquerque Center
Fri 04:33:18 PM 35.9136 -103.3028 241° Southwest 459 528 40,000  Level Albuquerque Center
Fri 04:34:19 PM 35.8511 -103.4439 241° Southwest 465 535 40,000  Level Albuquerque Center
Fri 04:35:21 PM 35.7878 -103.5831 241° Southwest 463 533 40,000  Level Albuquerque Center
Fri 04:36:23 PM 35.7247 -103.7228 241° Southwest 464 534 40,000  Level Albuquerque Center
Fri 04:37:24 PM 35.6506 -103.8847 241° Southwest 463 533 40,000  Level Albuquerque Center
Fri 04:38:26 PM 35.5875 -104.0236 241° Southwest 465 535 40,000  Level Albuquerque Center
Fri 04:39:28 PM 35.5261 -104.1600 241° Southwest 459 528 40,000  Level Albuquerque Center
Fri 04:40:30 PM 35.4636 -104.2939 240° Southwest 455 524 40,000  Level Albuquerque Center
Fri 04:41:32 PM 35.4017 -104.4267 240° Southwest 452 520 40,000  Level Albuquerque Center
Fri 04:42:34 PM 35.3347 -104.5672 240° Southwest 448 516 40,000  Level Albuquerque Center
Fri 04:43:36 PM 35.2672 -104.7108 240° Southwest 445 512 40,000  Level Albuquerque Center
Fri 04:44:38 PM 35.2053 -104.8428 240° Southwest 445 512 40,000  Level Albuquerque Center
Fri 04:45:39 PM 35.1439 -104.9742 240° Southwest 442 509 40,000  Level Albuquerque Center
Fri 04:46:41 PM 35.0825 -105.1047 240° Southwest 442 509 40,000  Level Albuquerque Center
Fri 04:47:43 PM 35.0197 -105.2361 240° Southwest 444 511 40,000  Level Albuquerque Center
Fri 04:48:45 PM 34.9561 -105.3664 239° Southwest 443 510 40,000  Level Albuquerque Center
Fri 04:49:46 PM 34.8969 -105.4986 241° Southwest 442 509 40,000  Level Albuquerque Center
Fri 04:50:48 PM 34.8422 -105.6508 246° West 447 514 40,000  Level Albuquerque Center
Fri 04:51:50 PM 34.7869 -105.8019 246° West 448 516 40,000  Level Albuquerque Center
Fri 04:52:52 PM 34.7369 -105.9278 244° Southwest 449 517 40,000  Level Albuquerque Center
Fri 04:53:53 PM 34.6831 -106.0667 245° Southwest 452 520 40,000  Level Albuquerque Center
Fri 04:54:55 PM 34.6278 -106.2042 244° Southwest 452 520 40,000  Level Albuquerque Center
Fri 04:55:57 PM 34.5639 -106.3361 240° Southwest 447 514 40,000  Level Albuquerque Center
Fri 04:56:59 PM 34.4806 -106.4492 228° Southwest 446 513 40,000  Level Albuquerque Center
Fri 04:58:01 PM 34.3836 -106.5853 229° Southwest 450 518 40,000  Level Albuquerque Center
Fri 04:59:02 PM 34.2983 -106.7017 228° Southwest 451 519 40,000  Level Albuquerque Center
Fri 05:00:04 PM 34.2144 -106.8142 228° Southwest 449 517 40,000  Level Albuquerque Center
Fri 05:01:06 PM 34.1336 -106.9303 230° Southwest 450 518 40,000  Level Albuquerque Center
Fri 05:02:08 PM 34.0506 -107.0458 229° Southwest 452 520 40,000  Level Albuquerque Center
Fri 05:03:09 PM 33.9661 -107.1622 229° Southwest 446 513 40,000  Level Albuquerque Center
Fri 05:04:11 PM 33.8878 -107.2692 229° Southwest 445 512 40,000  Level Albuquerque Center
Fri 05:05:13 PM 33.8067 -107.3814 229° Southwest 443 510 40,000  Level Albuquerque Center
Fri 05:06:15 PM 33.7233 -107.4958 229° Southwest 443 510 40,000  Level Albuquerque Center
Fri 05:07:16 PM 33.6422 -107.6053 228° Southwest 441 507 40,000 -49 Level Albuquerque Center
Fri 05:08:18 PM 33.5461 -107.7353 228° Southwest 437 503 39,900 -242 Descending Albuquerque Center
Fri 05:09:20 PM 33.4661 -107.8433 228° Southwest 436 502 39,500 -683 Descending Albuquerque Center
Fri 05:10:21 PM 33.3842 -107.9544 229° Southwest 439 505 38,500 -976 Descending Albuquerque Center
Fri 05:11:23 PM 33.3006 -108.0656 228° Southwest 445 512 37,500 -976 Descending Albuquerque Center
Fri 05:12:24 PM 33.2147 -108.1664 225° Southwest 443 510 36,500 -976 Descending Albuquerque Center
Fri 05:13:26 PM 33.1281 -108.2661 224° Southwest 438 504 35,500 -1,016 Descending Albuquerque Center
Fri 05:14:28 PM 33.0361 -108.3725 224° Southwest 436 502 34,400 -1,016 Descending Albuquerque Center
Fri 05:15:30 PM 32.9469 -108.4761 224° Southwest 441 507 33,400 -780 Descending Albuquerque Center
Fri 05:16:31 PM 32.8572 -108.5797 224° Southwest 446 513 32,800 -585 Descending Albuquerque Center
Fri 05:17:33 PM 32.7492 -108.7050 224° Southwest 446 513 32,200 -581 Descending Albuquerque Center
Fri 05:18:35 PM 32.6589 -108.8089 224° Southwest 447 514 31,600 -537 Descending Albuquerque Center
Fri 05:19:36 PM 32.5700 -108.9117 224° Southwest 445 512 31,100 -683 Descending Albuquerque Center
Fri 05:20:38 PM 32.4819 -109.0133 224° Southwest 441 507 30,200 -1,016 Descending Albuquerque Center
Fri 05:21:40 PM 32.3933 -109.1156 224° Southwest 442 509 29,000 -1,065 Descending Albuquerque Center
Fri 05:22:42 PM 32.3067 -109.2139 224° Southwest 436 502 28,000 -1,024 Descending Albuquerque Center
Fri 05:23:43 PM 32.2542 -109.3439 245° Southwest 460 529 26,900 -1,317 Descending Albuquerque Center
Fri 05:24:45 PM 32.2431 -109.4903 265° West 451 519 25,300 -1,610 Descending Albuquerque Center
Fri 05:25:46 PM 32.2297 -109.6361 264° West 450 518 23,600 -1,854 Descending Albuquerque Center
Fri 05:26:48 PM 32.2111 -109.8017 262° West 432 497 21,500 -1,887 Descending Albuquerque Center
Fri 05:27:50 PM 32.1958 -109.9350 262° West 416 479 19,700 -1,805 Descending Albuquerque Center
Fri 05:28:51 PM 32.1856 -110.0708 265° West 415 478 17,800 -1,855 Descending Albuquerque Center
Fri 05:29:40 PM 32.1728 -110.1750 262° West 376 433 16,300 -1,817 Descending Albuquerque Center
Fri 05:30:40 PM 32.1575 -110.2900 261° West 362 417 14,500 -1,884 Descending Albuquerque Center
Fri 05:31:41 PM 32.1072 -110.3822 237° Southwest 333 383 12,500 -1,785 Descending Albuquerque Center
Fri 05:32:41 PM 32.0772 -110.4786 250° West 313 360 10,900 -1,240 Descending Albuquerque Center
Fri 05:33:42 PM 32.0514 -110.5639 250° West 282 325 10,000 -1,328 Descending Albuquerque Center
Fri 05:34:43 PM 32.0292 -110.6456 252° West 264 304 8,200 -1,884 Descending Albuquerque Center
Fri 05:35:43 PM 32.0122 -110.7331 257° West 270 311 6,200 -1,438 Descending Albuquerque Center
Fri 05:36:44 PM 32.0108 -110.8139 269° West 249 287 5,300 -1,041 Descending Albuquerque Center
Fri 05:37:44 PM 32.0561 -110.8697 314° West 219 252 4,100 -1,087 Descending Albuquerque Center
Fri 05:38:51 PM 32.0925 -110.9125 315° West 161 185 3,000 -985 Descending Albuquerque Center

Login

Don't have an account? Register now (free) for customized features, flight alerts, and more!